Terminal Aerodrome Forecast
Issued by NWS Portland, OR

Home | Current Version | Previous Version | Text Only | Print | Product List | Glossary On
Versions: 1 2 3 4 5 6 7 8 9 10 11 12 13 14 15 16 17 18 19 20 21 22 23 24 25 26 27 28 29 30 31 32 33 34
000
FTUS46 KPQR 311740
TAFAST
TAF
KAST 311740Z 3118/0118 32008KT P6SM SKC
     FM312100 32013G23KT P6SM SKC
     FM010300 30009KT P6SM SCT250
     FM011000 30006KT 2SM BR BKN002
     FM011600 32006KT 4SM BR SCT004=

USA.gov is the U.S. government's official web portal to all federal, state and local government web resources and services.